createdAt,value
2023-02-02T00:01:35.606Z,3.28
2023-02-02T00:04:05.088Z,3.30
2023-02-02T00:06:35.549Z,3.31
2023-02-02T00:09:05.228Z,3.28
2023-02-02T00:11:33.893Z,3.28
2023-02-02T00:14:02.593Z,3.31
2023-02-02T00:16:41.860Z,3.32
2023-02-02T00:19:15.042Z,3.16
2023-02-02T00:21:46.074Z,3.30
2023-02-02T00:24:18.223Z,3.28
2023-02-02T00:26:50.049Z,3.27
2023-02-02T00:29:22.677Z,3.33
2023-02-02T00:31:52.578Z,3.36
2023-02-02T00:34:23.723Z,3.36
2023-02-02T00:36:54.016Z,3.29
2023-02-02T00:39:26.127Z,3.23
2023-02-02T00:41:55.376Z,3.22
2023-02-02T00:44:41.868Z,3.25
2023-02-02T00:47:10.586Z,3.26
2023-02-02T00:49:39.470Z,3.26
2023-02-02T00:52:11.280Z,3.27
2023-02-02T00:54:40.091Z,3.25
2023-02-02T00:57:08.856Z,3.23
2023-02-02T00:59:37.594Z,3.18
2023-02-02T01:02:07.018Z,3.19
2023-02-02T01:04:36.323Z,3.28
2023-02-02T01:07:05.512Z,3.21
2023-02-02T01:09:35.702Z,3.23
2023-02-02T01:12:05.667Z,3.29
2023-02-02T01:14:34.435Z,3.26
2023-02-02T01:17:03.157Z,3.23
2023-02-02T01:19:32.218Z,3.17
2023-02-02T01:22:02.757Z,3.13
2023-02-02T01:24:32.283Z,3.12
2023-02-02T01:27:02.646Z,3.14
2023-02-02T01:29:33.237Z,3.19
2023-02-02T01:32:02.029Z,3.20
2023-02-02T01:34:30.767Z,3.22
2023-02-02T01:36:59.500Z,3.22
2023-02-02T01:39:28.493Z,3.24
2023-02-02T01:41:58.156Z,3.30
2023-02-02T01:45:08.492Z,3.31
2023-02-02T01:47:42.848Z,3.30
2023-02-02T01:50:14.342Z,3.35
2023-02-02T01:52:50.001Z,3.34
2023-02-02T01:55:25.347Z,3.34
2023-02-02T01:57:59.003Z,3.33
2023-02-02T02:00:29.444Z,3.41
2023-02-02T02:03:07.523Z,3.35
2023-02-02T02:05:43.279Z,3.37
2023-02-02T02:08:18.831Z,3.39
2023-02-02T02:10:47.558Z,3.39
2023-02-02T02:13:19.397Z,3.36
2023-02-02T02:16:20.415Z,3.33
2023-02-02T02:19:03.808Z,3.31
2023-02-02T02:22:17.162Z,3.35
2023-02-02T02:25:58.406Z,3.32
2023-02-02T02:29:17.712Z,3.36
2023-02-02T02:32:32.409Z,3.36
2023-02-02T02:35:13.388Z,3.36
2023-02-02T02:37:52.051Z,3.35
2023-02-02T02:40:31.575Z,3.39
2023-02-02T02:43:09.020Z,3.45
2023-02-02T02:45:41.193Z,3.46
2023-02-02T02:48:12.813Z,3.52
2023-02-02T02:50:41.705Z,3.55
2023-02-02T02:53:15.995Z,3.56
2023-02-02T02:55:56.655Z,3.58
2023-02-02T02:58:37.410Z,3.56
2023-02-02T03:01:19.754Z,3.55
2023-02-02T03:04:09.892Z,3.58
2023-02-02T03:06:49.507Z,3.59
2023-02-02T03:09:27.162Z,3.65
2023-02-02T03:11:58.379Z,3.67
2023-02-02T03:14:27.341Z,3.70
2023-02-02T03:16:55.998Z,3.66
2023-02-02T03:19:26.204Z,3.68
2023-02-02T03:21:54.970Z,3.65
2023-02-02T03:24:23.765Z,3.67
2023-02-02T03:26:53.016Z,3.62
2023-02-02T03:29:21.776Z,3.65
2023-02-02T03:31:52.038Z,3.65
2023-02-02T03:34:20.815Z,3.63
2023-02-02T03:36:50.906Z,3.68
2023-02-02T03:39:19.613Z,3.71
2023-02-02T03:41:48.273Z,3.71
2023-02-02T03:44:16.999Z,3.65
2023-02-02T03:46:45.758Z,3.69
2023-02-02T03:49:14.479Z,3.67
2023-02-02T03:51:44.367Z,3.64
2023-02-02T03:54:14.953Z,3.65
2023-02-02T03:56:43.730Z,3.62
2023-02-02T03:59:12.443Z,3.60
2023-02-02T04:01:41.194Z,3.67
2023-02-02T04:04:09.945Z,3.64
2023-02-02T04:06:38.746Z,3.67
2023-02-02T04:09:07.534Z,3.64
2023-02-02T04:11:39.361Z,3.68
2023-02-02T04:14:09.047Z,3.69
2023-02-02T04:16:38.221Z,3.67
2023-02-02T04:19:07.084Z,3.69
2023-02-02T04:21:35.888Z,3.73
2023-02-02T04:24:04.780Z,3.75
2023-02-02T04:26:34.600Z,3.71
2023-02-02T04:29:05.906Z,3.65
2023-02-02T04:31:34.926Z,3.67
2023-02-02T04:34:04.502Z,3.69
2023-02-02T04:36:33.279Z,3.68
2023-02-02T04:39:01.939Z,3.66
2023-02-02T04:41:30.636Z,3.70
2023-02-02T04:43:59.515Z,3.68
2023-02-02T04:46:29.748Z,3.63
2023-02-02T04:48:58.895Z,3.68
2023-02-02T04:51:28.807Z,3.70
2023-02-02T04:53:59.292Z,3.71
2023-02-02T04:56:29.985Z,3.73
2023-02-02T04:58:59.895Z,3.73
2023-02-02T05:01:31.003Z,3.78
2023-02-02T05:04:00.105Z,3.75
2023-02-02T05:06:28.860Z,3.72
2023-02-02T05:08:57.584Z,3.77
2023-02-02T05:11:26.640Z,3.74
2023-02-02T05:13:56.605Z,3.67
2023-02-02T05:16:28.805Z,3.63
2023-02-02T05:18:59.736Z,3.68
2023-02-02T05:21:28.865Z,3.74
2023-02-02T05:23:57.583Z,3.78
2023-02-02T05:26:28.804Z,3.69
2023-02-02T05:28:59.072Z,3.70
2023-02-02T05:31:28.375Z,3.70
2023-02-02T05:33:58.720Z,3.68
2023-02-02T05:36:27.835Z,3.69
2023-02-02T05:38:58.400Z,3.63
2023-02-02T05:41:29.266Z,3.57
2023-02-02T05:44:00.937Z,3.65
2023-02-02T05:46:30.105Z,3.69
2023-02-02T05:49:00.698Z,3.62
2023-02-02T05:51:34.769Z,3.67
2023-02-02T05:54:03.985Z,3.68
2023-02-02T05:56:33.397Z,3.70
2023-02-02T05:59:05.083Z,3.64
2023-02-02T06:01:33.795Z,3.62
2023-02-02T06:04:04.023Z,3.65
2023-02-02T06:06:38.028Z,3.67
2023-02-02T06:09:07.284Z,3.68
2023-02-02T06:11:36.521Z,3.63
2023-02-02T06:14:05.278Z,3.62
2023-02-02T06:16:34.108Z,3.61
2023-02-02T06:19:04.612Z,3.63
2023-02-02T06:21:33.489Z,3.63
2023-02-02T06:24:02.340Z,3.68
2023-02-02T06:26:31.283Z,3.72
2023-02-02T06:28:59.996Z,3.74
2023-02-02T06:31:28.813Z,3.75
2023-02-02T06:33:59.728Z,3.78
2023-02-02T06:36:30.101Z,3.81
2023-02-02T06:38:59.613Z,3.78
2023-02-02T06:41:28.317Z,3.74
2023-02-02T06:43:57.383Z,3.76
2023-02-02T06:46:26.161Z,3.76
2023-02-02T06:48:54.980Z,3.78
2023-02-02T06:51:23.758Z,3.76
2023-02-02T06:53:54.054Z,3.77
2023-02-02T06:56:22.982Z,3.71
2023-02-02T06:58:51.778Z,3.74
2023-02-02T07:01:20.926Z,3.75
2023-02-02T07:03:51.258Z,3.79
2023-02-02T07:06:22.795Z,3.77
2023-02-02T07:09:02.191Z,3.78
2023-02-02T07:11:36.749Z,3.80
2023-02-02T07:14:08.482Z,3.78
2023-02-02T07:16:37.639Z,3.85
2023-02-02T07:19:06.355Z,3.88
2023-02-02T07:21:36.669Z,3.89
2023-02-02T07:24:08.737Z,3.88
2023-02-02T07:26:38.324Z,3.87
2023-02-02T07:29:07.217Z,3.90
2023-02-02T07:31:36.882Z,3.89
2023-02-02T07:34:05.877Z,3.82
2023-02-02T07:36:35.164Z,3.89
2023-02-02T07:39:07.802Z,3.90
2023-02-02T07:41:38.329Z,3.89
2023-02-02T07:44:17.760Z,3.84
2023-02-02T07:46:48.391Z,3.80
2023-02-02T07:49:20.403Z,3.86
2023-02-02T07:51:49.446Z,3.85
2023-02-02T07:54:19.591Z,3.83
2023-02-02T07:56:48.453Z,3.84
2023-02-02T07:59:17.157Z,3.87
2023-02-02T08:01:45.868Z,3.89
2023-02-02T08:04:15.679Z,3.87
2023-02-02T08:06:44.473Z,3.93
2023-02-02T08:09:13.154Z,3.92
2023-02-02T08:11:43.313Z,3.97
2023-02-02T08:14:15.185Z,3.96
2023-02-02T08:16:43.846Z,3.94
2023-02-02T08:19:12.882Z,3.86
2023-02-02T08:21:41.633Z,3.90
2023-02-02T08:24:10.432Z,3.91
2023-02-02T08:26:39.133Z,3.96
2023-02-02T08:29:11.421Z,3.96
2023-02-02T08:31:42.893Z,4.01
2023-02-02T08:34:12.396Z,4.08
2023-02-02T08:36:41.316Z,4.09
2023-02-02T08:39:14.410Z,4.13
2023-02-02T08:41:43.129Z,4.13
2023-02-02T08:44:17.229Z,4.12
2023-02-02T08:46:47.234Z,4.09
2023-02-02T08:49:16.265Z,4.11
2023-02-02T08:51:44.978Z,4.12
2023-02-02T08:54:13.759Z,4.06
2023-02-02T08:56:42.482Z,4.07
2023-02-02T08:59:12.596Z,4.13
2023-02-02T09:01:41.320Z,4.17
2023-02-02T09:04:17.284Z,4.17
2023-02-02T09:06:46.533Z,4.14
2023-02-02T09:09:17.751Z,4.13
2023-02-02T09:11:46.658Z,4.18
2023-02-02T09:14:16.868Z,4.21
2023-02-02T09:16:45.634Z,4.21
2023-02-02T09:19:14.592Z,4.23
2023-02-02T09:21:43.286Z,4.21
2023-02-02T09:24:14.535Z,4.16
2023-02-02T09:26:45.821Z,4.16
2023-02-02T09:29:18.989Z,4.17
2023-02-02T09:31:48.079Z,4.16
2023-02-02T09:34:17.655Z,4.13
2023-02-02T09:36:47.546Z,4.21
2023-02-02T09:39:17.869Z,4.20
2023-02-02T09:42:18.665Z,4.20
2023-02-02T09:45:09.314Z,4.24
2023-02-02T09:47:55.516Z,4.26
2023-02-02T09:50:42.328Z,4.26
2023-02-02T09:53:26.909Z,4.28
2023-02-02T09:56:01.707Z,4.31
2023-02-02T09:58:37.199Z,4.33
2023-02-02T10:01:14.378Z,4.24
2023-02-02T10:03:51.322Z,4.30
2023-02-02T10:06:35.656Z,4.29
2023-02-02T10:09:22.731Z,4.22
2023-02-02T10:12:01.842Z,4.23
2023-02-02T10:14:38.230Z,4.23
2023-02-02T10:17:33.909Z,4.22
2023-02-02T10:20:16.988Z,4.20
2023-02-02T10:22:49.376Z,4.12
2023-02-02T10:25:19.337Z,4.10
2023-02-02T10:28:02.420Z,4.09
2023-02-02T10:30:47.562Z,4.19
2023-02-02T10:33:32.697Z,4.21
2023-02-02T10:36:17.741Z,4.25
2023-02-02T10:39:00.852Z,4.31
2023-02-02T10:41:42.820Z,4.38
2023-02-02T10:44:29.442Z,4.36
2023-02-02T10:47:03.382Z,4.32
2023-02-02T10:49:38.161Z,4.35
2023-02-02T10:52:18.774Z,4.46
2023-02-02T10:55:04.139Z,4.41
2023-02-02T10:58:01.462Z,4.32
2023-02-02T11:00:42.141Z,4.32
2023-02-02T11:03:15.354Z,4.26
2023-02-02T11:06:03.336Z,4.23
2023-02-02T11:08:36.394Z,4.26
2023-02-02T11:11:18.998Z,4.30
2023-02-02T11:13:58.162Z,4.37
2023-02-02T11:16:42.234Z,4.37
2023-02-02T11:19:43.978Z,4.40
2023-02-02T11:22:29.876Z,4.40
2023-02-02T11:25:02.760Z,4.37
2023-02-02T11:27:39.621Z,4.21
2023-02-02T11:30:29.314Z,4.30
2023-02-02T11:32:58.043Z,4.37
2023-02-02T11:35:30.817Z,4.33
2023-02-02T11:38:10.936Z,4.27
2023-02-02T11:40:43.674Z,4.28
2023-02-02T11:43:20.967Z,4.22
2023-02-02T11:46:02.302Z,4.09
2023-02-02T11:48:36.171Z,4.15
2023-02-02T11:51:09.081Z,4.12
2023-02-02T11:53:48.298Z,4.19
2023-02-02T11:56:25.147Z,4.19
2023-02-02T11:58:56.643Z,4.16
2023-02-02T12:01:29.032Z,4.17
2023-02-02T12:04:00.366Z,4.09
2023-02-02T12:06:37.629Z,4.17
2023-02-02T12:09:16.157Z,4.15
2023-02-02T12:12:03.317Z,4.22
2023-02-02T12:14:47.904Z,4.26
2023-02-02T12:17:39.014Z,4.32
2023-02-02T12:20:31.687Z,4.33
2023-02-02T12:23:23.964Z,4.33
2023-02-02T12:26:25.176Z,4.27
2023-02-02T12:29:35.520Z,4.24
2023-02-02T12:32:28.151Z,4.26
2023-02-02T12:35:22.861Z,4.46
2023-02-02T12:38:07.783Z,4.52
2023-02-02T12:41:07.167Z,4.54
2023-02-02T12:49:07.402Z,4.43
2023-02-02T12:51:53.707Z,4.36
2023-02-02T12:54:55.688Z,4.36
2023-02-02T12:57:40.481Z,4.35
2023-02-02T13:00:34.039Z,4.38
2023-02-02T13:03:22.739Z,4.45
2023-02-02T13:06:16.992Z,4.45
2023-02-02T13:08:58.060Z,4.52
2023-02-02T13:11:40.017Z,4.56
2023-02-02T13:14:16.319Z,4.65
2023-02-02T13:16:51.547Z,4.67
2023-02-02T13:19:32.896Z,4.70
2023-02-02T13:22:08.240Z,4.65
2023-02-02T13:24:45.880Z,4.62
2023-02-02T13:27:20.902Z,4.53
2023-02-02T13:29:56.978Z,4.57
2023-02-02T13:32:33.177Z,4.63
2023-02-02T13:35:15.763Z,4.70
2023-02-02T13:37:53.855Z,4.76
2023-02-02T13:40:32.243Z,4.68
2023-02-02T13:43:17.463Z,4.72
2023-02-02T13:46:05.099Z,4.66
2023-02-02T13:48:46.136Z,4.65
2023-02-02T13:51:51.183Z,4.64
2023-02-02T13:55:25.548Z,4.57
2023-02-02T13:58:39.070Z,4.57
2023-02-02T14:01:13.525Z,4.60
2023-02-02T14:03:45.183Z,4.62
2023-02-02T14:06:20.270Z,4.66
2023-02-02T14:08:55.459Z,4.62
2023-02-02T14:11:31.713Z,4.62
2023-02-02T14:14:27.605Z,4.63
2023-02-02T14:16:56.944Z,4.57
2023-02-02T14:19:54.759Z,4.58
2023-02-02T14:22:47.854Z,4.52
2023-02-02T14:25:53.487Z,4.56
2023-02-02T14:28:51.972Z,4.43
2023-02-02T14:31:54.664Z,4.42
2023-02-02T14:34:35.833Z,4.39
2023-02-02T14:37:38.613Z,4.43
2023-02-02T14:40:49.688Z,4.40
2023-02-02T14:43:46.310Z,4.35
2023-02-02T14:46:35.769Z,4.32
2023-02-02T14:49:27.056Z,4.39
2023-02-02T14:52:03.114Z,4.35
2023-02-02T14:54:41.421Z,4.31
2023-02-02T14:57:28.639Z,4.41
2023-02-02T15:00:01.313Z,4.40
2023-02-02T15:02:38.960Z,4.42
2023-02-02T15:05:41.899Z,4.47
2023-02-02T15:08:25.284Z,4.53
2023-02-02T15:11:27.534Z,4.49
2023-02-02T15:14:16.071Z,4.45
2023-02-02T15:16:47.628Z,4.44
2023-02-02T15:19:33.169Z,4.44
2023-02-02T15:22:23.737Z,4.40
2023-02-02T15:24:54.967Z,4.34
2023-02-02T15:27:25.970Z,4.33
2023-02-02T15:30:02.779Z,4.33
2023-02-02T15:32:34.202Z,4.36
2023-02-02T15:35:09.166Z,4.25
2023-02-02T15:37:45.267Z,4.23
2023-02-02T15:40:23.032Z,4.28
2023-02-02T15:42:57.496Z,4.28
2023-02-02T15:45:44.932Z,4.27
2023-02-02T15:48:29.995Z,4.28
2023-02-02T15:51:06.968Z,4.32
2023-02-02T15:53:52.081Z,4.33
2023-02-02T15:56:30.598Z,4.24
2023-02-02T15:59:01.879Z,4.26
2023-02-02T16:01:46.309Z,4.16
2023-02-02T16:04:23.791Z,4.14
2023-02-02T16:06:55.757Z,4.17
2023-02-02T16:09:29.874Z,4.14
2023-02-02T16:58:04.909Z,4.07
2023-02-02T17:06:56.090Z,4.02
2023-02-02T17:09:50.350Z,4.00
2023-02-02T17:15:35.625Z,3.89
2023-02-02T17:18:07.098Z,3.91
2023-02-02T17:20:36.108Z,3.91
2023-02-02T17:23:19.394Z,3.91
2023-02-02T17:25:49.132Z,3.99
2023-02-02T17:28:22.670Z,3.93
2023-02-02T17:31:01.602Z,3.93
2023-02-02T17:33:36.583Z,3.87
2023-02-02T17:36:07.256Z,4.01
2023-02-02T17:38:39.573Z,4.07
2023-02-02T17:41:08.725Z,4.10
2023-02-02T17:43:39.811Z,4.09
2023-02-02T17:46:14.448Z,4.16
2023-02-02T17:48:47.688Z,4.13
2023-02-02T17:51:18.948Z,4.22
2023-02-02T17:53:49.022Z,4.27
2023-02-02T17:56:21.323Z,4.22
2023-02-02T17:58:53.693Z,4.16
2023-02-02T18:01:23.427Z,4.04
2023-02-02T18:03:55.618Z,4.06
2023-02-02T18:06:24.598Z,3.97
2023-02-02T18:08:54.366Z,3.98
2023-02-02T18:11:25.271Z,4.03
2023-02-02T18:13:57.646Z,4.06
2023-02-02T18:16:35.501Z,4.09
2023-02-02T18:19:06.556Z,4.13
2023-02-02T18:21:37.138Z,4.14
2023-02-02T18:24:07.105Z,4.22
2023-02-02T18:26:36.536Z,4.23
2023-02-02T18:29:06.425Z,4.15
2023-02-02T18:31:41.981Z,4.09
2023-02-02T18:34:14.547Z,4.21
2023-02-02T18:36:45.058Z,4.28
2023-02-02T18:39:17.502Z,4.24
2023-02-02T18:41:47.398Z,4.09
2023-02-02T18:44:17.388Z,3.99
2023-02-02T18:46:46.497Z,3.99
2023-02-02T18:49:16.986Z,3.92
2023-02-02T18:51:47.340Z,3.89
2023-02-02T18:54:16.209Z,3.94
2023-02-02T18:56:49.853Z,3.93
2023-02-02T18:59:21.831Z,3.97
2023-02-02T19:01:51.683Z,3.97
2023-02-02T19:04:22.520Z,3.95
2023-02-02T19:07:08.806Z,3.90
2023-02-02T19:09:38.033Z,3.80
2023-02-02T19:12:15.138Z,3.80
2023-02-02T19:14:48.947Z,3.77
2023-02-02T19:17:25.399Z,3.82
2023-02-02T19:20:04.046Z,3.81
2023-02-02T19:22:34.168Z,3.77
2023-02-02T19:25:15.454Z,3.78
2023-02-02T19:27:44.450Z,3.74
2023-02-02T19:30:22.952Z,3.71
2023-02-02T19:32:52.557Z,3.67
2023-02-02T19:35:26.355Z,3.64
2023-02-02T19:38:03.984Z,3.61
2023-02-02T19:40:32.753Z,3.59
2023-02-02T19:43:24.770Z,3.57
2023-02-02T19:45:54.452Z,3.49
2023-02-02T19:48:29.433Z,3.47
2023-02-02T19:51:01.016Z,3.45
2023-02-02T19:53:39.436Z,3.41
2023-02-02T19:56:26.079Z,3.41
2023-02-02T19:58:56.120Z,3.36
2023-02-02T20:01:31.255Z,3.29
2023-02-02T20:04:00.273Z,3.24
2023-02-02T20:06:35.011Z,3.28
2023-02-02T20:09:14.467Z,3.24
2023-02-02T20:11:46.216Z,3.21
2023-02-02T20:14:32.344Z,3.21
2023-02-02T20:17:07.732Z,3.18
2023-02-02T20:19:42.740Z,3.13
2023-02-02T20:22:26.850Z,3.20
2023-02-02T20:25:02.622Z,3.28
2023-02-02T20:27:35.637Z,3.34
2023-02-02T20:30:24.228Z,3.41
2023-02-02T20:32:59.245Z,3.44
2023-02-02T20:35:37.713Z,3.50
2023-02-02T20:38:23.115Z,3.53
2023-02-02T20:40:53.335Z,3.48
2023-02-02T20:43:22.498Z,3.54
2023-02-02T20:45:52.405Z,3.53
2023-02-02T20:48:21.450Z,3.54
2023-02-02T20:50:50.255Z,3.50
2023-02-02T20:53:20.483Z,3.54
2023-02-02T20:55:49.273Z,3.55
2023-02-02T20:58:20.638Z,3.56
2023-02-02T21:00:49.350Z,3.56
2023-02-02T21:03:18.558Z,3.55
2023-02-02T21:05:47.446Z,3.49
2023-02-02T21:08:16.119Z,3.52
2023-02-02T21:10:46.243Z,3.53
2023-02-02T21:13:15.048Z,3.52
2023-02-02T21:15:43.729Z,3.49
2023-02-02T21:18:12.458Z,3.50
2023-02-02T21:20:41.108Z,3.52
2023-02-02T21:23:10.259Z,3.45
2023-02-02T21:25:39.003Z,3.42
2023-02-02T21:28:09.054Z,3.37
2023-02-02T21:30:38.047Z,3.39
2023-02-02T21:33:06.930Z,3.41
2023-02-02T21:35:35.968Z,3.36
2023-02-02T21:38:14.612Z,3.36
2023-02-02T21:40:43.709Z,3.38
2023-02-02T21:43:18.718Z,3.36
2023-02-02T21:45:51.961Z,3.34
2023-02-02T21:48:33.961Z,3.34
2023-02-02T21:51:24.501Z,3.31
2023-02-02T21:53:53.767Z,3.31
2023-02-02T21:56:33.757Z,3.29
2023-02-02T21:59:14.239Z,3.29
2023-02-02T22:01:43.705Z,3.28
2023-02-02T22:04:25.265Z,3.23
2023-02-02T22:06:58.077Z,3.23
2023-02-02T22:09:30.668Z,3.25
2023-02-02T22:12:02.084Z,3.16
2023-02-02T22:14:40.613Z,3.20
2023-02-02T22:17:23.220Z,3.16
2023-02-02T22:19:55.880Z,3.15
2023-02-02T22:22:27.977Z,3.18
2023-02-02T22:25:01.544Z,3.14
2023-02-02T22:27:43.546Z,3.13
2023-02-02T22:30:29.045Z,3.13
2023-02-02T22:32:57.964Z,3.03
2023-02-02T22:35:26.989Z,3.04
2023-02-02T22:37:55.720Z,3.06
2023-02-02T22:40:25.255Z,3.00
2023-02-02T22:42:57.117Z,3.06
2023-02-02T22:45:27.626Z,3.01
2023-02-02T22:47:56.685Z,2.86
2023-02-02T22:50:29.106Z,2.89
2023-02-02T22:52:58.257Z,2.76
2023-02-02T22:55:26.966Z,2.88
2023-02-02T22:57:55.720Z,2.95
2023-02-02T23:00:28.586Z,2.93
2023-02-02T23:02:58.347Z,2.89
2023-02-02T23:05:28.875Z,2.95
2023-02-02T23:07:57.974Z,2.91
2023-02-02T23:10:29.675Z,2.98
2023-02-02T23:12:59.511Z,2.97
2023-02-02T23:15:30.981Z,3.05
2023-02-02T23:17:59.975Z,3.11
2023-02-02T23:20:29.609Z,2.96
2023-02-02T23:22:58.374Z,2.89
2023-02-02T23:25:27.073Z,2.90
2023-02-02T23:27:55.874Z,3.02
2023-02-02T23:30:25.249Z,3.07
2023-02-02T23:32:55.608Z,3.00
2023-02-02T23:35:24.375Z,2.94
2023-02-02T23:37:53.150Z,3.08
2023-02-02T23:40:22.005Z,3.15
2023-02-02T23:42:50.702Z,3.16
2023-02-02T23:45:19.573Z,3.19
2023-02-02T23:47:48.354Z,3.22
2023-02-02T23:50:18.734Z,3.14
2023-02-02T23:52:47.452Z,3.19
2023-02-02T23:55:17.084Z,3.09
2023-02-02T23:57:45.874Z,3.17
